Jardim De Angicos, Brazil
Current Conditions -  °F | °C
As of 6:00 AM on Sunday 21 Dec 2014 (Local Time) from SBNT Reporting Station
Few Clouds Few Clouds  
Wind Chill: 79°   Ceiling: Unl
Heat Index: 81°   Visibility: 6mi
Dew Point: 70°   Wind: 8mph
Humidity: 74%   Direction: 100°E
Pressure: 29.91"   Gusts: NA
Location:  5.65°S, 35.98°W
Report Text: SBNT 210900Z 10007KT 9999 FEW018 26/21 Q1013
Loading
Personal Weather Stations






























Interactive Weather Map New forecast layout! Learn more

10-Day Weather Forecast

Advertisements
Track Severe Weather on mobile